• Join FlightAware (Why Join?)
  • Login
  • US Flag 
03:42AM EDT


 

Airport Tracker/Info


-or-


 

Live Flight TrackerFlight Track Log ✈ N795XJ ✈ 30-Apr-2013 ✈ KCRP - KLAS

Flight Track Log - Related Links

Times and Time Zones

All times are in EDT time to prevent confusion due to time zone crossing. See the N795XJ flight status page for this flight to view local times or setup timezone preferences in your user account.

Time Position Orientation Groundspeed Altitude Reporting Facility
EDT Latitude Longitude Course Direction KTS MPH feet Rate Location/Type
04:37PM 27.7583 -97.4953 213° Southwest 184 212 800  Level Houston Center
04:38PM 27.7269 -97.5183 213° Southwest 215 247 3,200 2,580 Climbing Houston Center
04:39PM 27.7683 -97.5672 314° West 273 314 5,500 2,760 Climbing Houston Center
04:40PM 27.8453 -97.6206 328° Northwest 269 310 9,200 2,520 Climbing Houston Center
04:41PM 27.8969 -97.6589 327° Northwest 274 315 10,800 2,100 Climbing Houston Center
04:42PM 27.9797 -97.7219 326° Northwest 305 351 13,300 2,580 Climbing Houston Center
04:43PM 28.0592 -97.7947 321° Northwest 335 386 16,100 2,580 Climbing Houston Center
04:44PM 28.1361 -97.8567 325° Northwest 340 391 18,700 2,220 Climbing Houston Center
04:45PM 28.2125 -97.9161 326° Northwest 348 400 20,800 1,920 Climbing Houston Center
04:46PM 28.2950 -97.9831 324° Northwest 362 417 22,800 2,100 Climbing Houston Center
04:47PM 28.3997 -98.0658 325° Northwest 378 435 25,200 1,920 Climbing Houston Center
04:48PM 28.4911 -98.1367 326° Northwest 395 455 26,800 1,260 Climbing Houston Center
04:49PM 28.5744 -98.2325 315° West 422 486 27,900 960 Climbing Houston Center
04:50PM 28.6531 -98.3428 309° West 443 510 28,900 960 Climbing Houston Center
04:51PM 28.7422 -98.4697 309° West 466 536 30,000 1,020 Climbing Houston Center
04:52PM 28.8317 -98.5989 308° West 479 551 31,100 960 Climbing Houston Center
04:53PM 28.9381 -98.6994 320° Northwest 495 570 32,100 1,320 Climbing Houston Center
04:54PM 29.0672 -98.7844 330° Northwest 497 572 33,900 1,680 Climbing Houston Center
04:55PM 29.1844 -98.8622 330° Northwest 487 560 35,600 1,620 Climbing Houston Center
04:56PM 29.3014 -98.9403 330° Northwest 485 558 37,300 1,500 Climbing Houston Center
04:57PM 29.4258 -99.0214 330° Northwest 478 550 38,700 1,140 Climbing Houston Center
04:58PM 29.5400 -99.0983 330° Northwest 475 547 39,700 600 Climbing Houston Center
04:59PM 29.6633 -99.1822 329° Northwest 478 550 40,000 120 Climbing Houston Center
05:00PM 29.7683 -99.2525 330° Northwest 486 559 40,000  Level Houston Center
05:01PM 29.8869 -99.3325 330° Northwest 495 570 40,000  Level Houston Center
05:02PM 29.9847 -99.4378 317° Northwest 489 563 40,000  Level Houston Center
05:03PM 30.0528 -99.6039 295° West 482 555 40,000  Level Houston Center
05:04PM 30.0944 -99.7472 289° West 474 545 40,000  Level Houston Center
05:05PM 30.1369 -99.8911 289° West 477 549 40,000  Level Houston Center
05:07PM 30.1794 -100.0358 289° West 480 552 40,000  Level Houston Center
05:08PM 30.2294 -100.2072 289° West 484 557 40,000  Level Houston Center
05:09PM 30.2711 -100.3519 288° West 481 554 40,000  Level Houston Center
05:10PM 30.3125 -100.4964 288° West 475 547 40,000 480 Level Houston Center
05:11PM 30.3539 -100.6411 288° West 470 541 41,100 1,080 Climbing Houston Center
05:12PM 30.3925 -100.7783 288° West 452 520 42,300 840 Climbing Houston Center
05:13PM 30.4367 -100.9431 287° West 449 517 42,900 300 Climbing Houston Center
05:14PM 30.4756 -101.0808 288° West 450 518 43,000  Climbing Houston Center
05:15PM 30.5142 -101.2206 288° West 455 524 42,900  Descending Houston Center
05:16PM 30.5539 -101.3617 288° West 460 529 43,000  Climbing Houston Center
05:17PM 30.5931 -101.5044 288° West 463 533 43,000  Level Houston Center
05:18PM 30.6328 -101.6342 290° West 465 535 43,000  Level Albuquerque Center
05:19PM 30.6792 -101.8064 287° West 466 536 43,000  Level Albuquerque Center
05:20PM 30.7178 -101.9503 287° West 465 535 43,000  Level Albuquerque Center
05:21PM 30.7572 -102.0939 288° West 465 535 43,000  Level Albuquerque Center
05:22PM 30.7961 -102.2386 287° West 467 537 43,000  Level Albuquerque Center
05:23PM 30.8350 -102.3839 287° West 467 537 43,000  Level Albuquerque Center
05:24PM 30.8742 -102.5289 288° West 467 537 43,000  Level Albuquerque Center
05:25PM 30.9125 -102.6753 287° West 468 539 43,000  Level Albuquerque Center
05:26PM 30.9508 -102.8197 287° West 467 537 43,000  Level Albuquerque Center
05:27PM 30.9978 -102.9939 287° West 468 539 43,000  Level Albuquerque Center
05:28PM 31.0344 -103.1378 287° West 465 535 43,000  Level Albuquerque Center
05:29PM 31.0744 -103.2847 288° West 470 541 43,000  Level Albuquerque Center
05:30PM 31.1192 -103.4256 290° West 465 535 43,000  Level Albuquerque Center
05:31PM 31.1706 -103.5664 293° West 468 539 43,000  Level Albuquerque Center
05:32PM 31.2203 -103.7086 292° West 471 542 43,000  Level Albuquerque Center
05:33PM 31.2728 -103.8597 292° West 470 541 43,000  Level Albuquerque Center
05:34PM 31.3219 -104.0017 292° West 472 543 43,000  Level Albuquerque Center
05:35PM 31.3703 -104.1425 292° West 470 541 43,000  Level Albuquerque Center
05:36PM 31.4292 -104.3119 292° West 471 542 43,000  Level Albuquerque Center
05:37PM 31.4775 -104.4536 292° West 471 542 43,000  Level Albuquerque Center
05:38PM 31.5261 -104.5942 292° West 469 540 43,000  Level Albuquerque Center
05:39PM 31.5761 -104.7361 292° West 473 544 43,000  Level Albuquerque Center
05:41PM 31.6242 -104.8806 291° West 476 548 43,000  Level Albuquerque Center
05:42PM 31.6828 -105.0519 292° West 476 548 43,000  Level Albuquerque Center
05:43PM 31.7303 -105.1958 291° West 475 547 43,000  Level Albuquerque Center
05:44PM 31.7786 -105.3417 291° West 479 551 43,000  Level Albuquerque Center
05:45PM 31.8258 -105.4875 291° West 480 552 43,000  Level Albuquerque Center
05:46PM 31.8742 -105.6322 292° West 477 549 43,000  Level Albuquerque Center
05:47PM 31.9214 -105.7764 291° West 475 547 43,000  Level Albuquerque Center
05:48PM 31.9764 -105.9425 291° West 479 551 43,000  Level Albuquerque Center
05:49PM 32.0239 -106.0881 291° West 477 549 43,000  Level Albuquerque Center
05:50PM 32.0708 -106.2342 291° West 478 550 43,000  Level Albuquerque Center
05:51PM 32.1192 -106.3806 291° West 480 552 43,000  Level Albuquerque Center
05:52PM 32.1664 -106.5275 291° West 481 554 43,000  Level Albuquerque Center
05:53PM 32.2225 -106.7044 291° West 480 552 43,000  Level Albuquerque Center
05:54PM 32.2711 -106.8503 292° West 477 549 43,000  Level Albuquerque Center
05:55PM 32.3500 -106.9853 305° West 484 557 43,000  Level Albuquerque Center
05:56PM 32.4419 -107.1089 311° West 482 555 43,000  Level Albuquerque Center
05:57PM 32.5228 -107.2194 311° West 486 559 43,000  Level Albuquerque Center
05:58PM 32.6111 -107.3372 312° West 483 556 43,000  Level Albuquerque Center
05:59PM 32.7164 -107.4786 312° West 482 555 43,000  Level Albuquerque Center
06:00PM 32.7961 -107.5886 311° West 480 552 43,000  Level Albuquerque Center
06:01PM 32.8847 -107.7097 311° West 482 555 43,000  Level Albuquerque Center
06:02PM 32.9914 -107.8522 312° West 482 555 43,000  Level Albuquerque Center
06:03PM 33.0789 -107.9736 311° West 484 557 43,000  Level Albuquerque Center
06:04PM 33.1678 -108.0939 311° West 484 557 43,000  Level Albuquerque Center
06:05PM 33.2575 -108.2167 311° West 485 558 43,000  Level Albuquerque Center
06:06PM 33.3461 -108.3372 311° West 487 560 43,000  Level Albuquerque Center
06:07PM 33.4508 -108.4831 311° West 489 563 43,000  Level Albuquerque Center
06:08PM 33.5381 -108.6044 311° West 489 563 43,000  Level Albuquerque Center
06:09PM 33.6253 -108.7258 311° West 489 563 43,000  Level Albuquerque Center
06:10PM 33.7142 -108.8500 311° West 494 568 43,000  Level Albuquerque Center
06:11PM 33.8006 -108.9736 310° West 492 566 43,000  Level Albuquerque Center
06:13PM 33.9050 -109.1197 311° West 488 562 43,000  Level Albuquerque Center
06:14PM 33.9908 -109.2425 310° West 485 558 43,000  Level Albuquerque Center
06:15PM 34.0758 -109.3633 310° West 481 554 43,000  Level Albuquerque Center
06:16PM 34.1722 -109.4981 311° West 476 548 43,000  Level Albuquerque Center
06:17PM 34.2550 -109.6169 310° West 479 551 43,000  Level Albuquerque Center
06:18PM 34.3497 -109.7544 310° West 477 549 43,000  Level Albuquerque Center
06:19PM 34.4331 -109.8722 311° West 479 551 43,000  Level Albuquerque Center
06:20PM 34.5275 -110.0100 310° West 477 549 43,000 -360 Level Albuquerque Center
06:21PM 34.6094 -110.1269 310° West 475 547 42,300 -1,080 Descending Albuquerque Center
06:22PM 34.6936 -110.2525 309° West 486 559 40,900 -1,140 Descending Albuquerque Center
06:23PM 34.7856 -110.3869 310° West 472 543 40,000 -480 Descending Albuquerque Center
06:24PM 34.8611 -110.4986 310° West 457 526 40,000  Level Albuquerque Center
06:25PM 34.9503 -110.6292 310° West 452 520 40,000  Level Albuquerque Center
06:26PM 35.0197 -110.7717 301° West 479 551 40,000  Level Albuquerque Center
06:27PM 35.0578 -110.9289 287° West 477 549 40,000  Level Albuquerque Center
06:28PM 35.0917 -111.0781 286° West 474 545 40,000  Level Albuquerque Center
06:29PM 35.1283 -111.2381 286° West 483 556 40,000  Level Albuquerque Center
06:30PM 35.1625 -111.3914 285° West 474 545 40,000 -120 Level Albuquerque Center
06:31PM 35.1964 -111.5467 285° West 474 545 39,800 -2,700 Descending Albuquerque Center
06:32PM 35.2361 -111.7242 285° West 460 529 34,500 -4,440 Descending Albuquerque Center
06:33PM 35.2667 -111.8625 285° West 465 535 30,700 -2,220 Descending Albuquerque Center
06:34PM 35.3022 -112.0261 285° West 491 565 30,000 -360 Descending Albuquerque Center
06:35PM 35.3417 -112.2036 285° West 453 521 30,000  Level Albuquerque Center
06:36PM 35.3700 -112.3319 285° West 404 465 30,000  Level Albuquerque Center
06:37PM 35.3811 -112.3842 285° West 401 461 30,000  Level Los Angeles Center
06:38PM 35.4089 -112.5119 285° West 394 453 30,000 -300 Level Los Angeles Center
06:39PM 35.4397 -112.6578 285° West 390 449 29,500 -840 Descending Los Angeles Center
06:40PM 35.4672 -112.7856 285° West 386 444 28,300 -1,260 Descending Los Angeles Center
06:41PM 35.4933 -112.9111 284° West 377 434 27,000 -1,260 Descending Los Angeles Center
06:42PM 35.5161 -113.0222 284° West 362 417 25,700 -1,020 Descending Los Angeles Center
06:43PM 35.5514 -113.1928 284° West 436 502 25,000 -360 Descending Los Angeles Center
06:44PM 35.5783 -113.3192 285° West 461 531 25,000 -480 Level Los Angeles Center
06:45PM 35.6153 -113.4994 284° West 462 532 24,100 -1,500 Descending Los Angeles Center
06:46PM 35.6397 -113.6483 281° West 449 517 22,000 -1,500 Descending Los Angeles Center
06:47PM 35.6611 -113.7958 280° West 444 511 21,000 -1,020 Descending Los Angeles Center
06:48PM 35.6803 -113.9375 279° West 429 494 20,000 -1,800 Descending Los Angeles Center
06:49PM 35.7000 -114.0769 280° West 419 482 17,300 -2,640 Descending Los Angeles Center
06:50PM 35.7192 -114.2033 281° West 408 470 15,100 -2,400 Descending Los Angeles Center
06:51PM 35.7417 -114.3311 282° West 324 373 12,600 -1,980 Descending Los Angeles Center
06:52PM 35.8017 -114.3958 319° Northwest 293 337 10,900 -1,920 Descending Los Angeles Center
06:53PM 35.8764 -114.4397 335° Northwest 296 341 8,800 -1,380 Descending Los Angeles Center
06:54PM 35.9475 -114.4944 328° Northwest 289 333 8,000 -420 Descending Los Angeles Center
06:55PM 36.0133 -114.5583 322° Northwest 293 337 8,000  Level Los Angeles Center
06:56PM 36.0639 -114.6397 308° West 279 321 8,000  Level Los Angeles Center
06:57PM 36.1078 -114.7056 310° West 229 264 8,000 -480 Level Los Angeles Center
06:58PM 36.1394 -114.7664 303° West 204 235 7,100 -840 Descending Los Angeles Center
06:59PM 36.1422 -114.8239 273° West 196 226 6,300 -1,020 Descending Los Angeles Center
07:00PM 36.1372 -114.8844 264° West 180 207 5,200 -540 Descending Los Angeles Center
07:01PM 36.1350 -114.9436 267° West 183 211 5,300 -180 Climbing Los Angeles Center
07:02PM 36.1336 -115.0056 268° West 177 204 4,900 -840 Descending Los Angeles Center
07:03PM 36.1356 -115.0742 272° West 188 216 3,700 -900 Descending Los Angeles Center
07:04PM 36.1333 -115.1333 267° West 156 180 3,100 -660 Descending Los Angeles Center
07:05PM 36.1319 -115.1361 238° Southwest 170 196 2,900 -840 Descending Los Angeles Center
07:05PM 36.1033 -115.1539 207° Southwest 126 145 2,300 -720 Descending Los Angeles Center
07:06PM 36.0992 -115.1558 201° Southwest 144 166 2,200 -360 Descending Los Angeles Center
07:08PM 36.0801 -115.1523 180° South  Level Estimated